Elaine, Arkansas
Current Conditions -  °F | °C
As of 12:35 PM on Sunday 23 Nov 2014 (Local Time) from KCKM Reporting Station
Overcast Overcast  
Wind Chill: 59°   Ceiling: 1100
Heat Index: 59°   Visibility: 10mi
Dew Point: 59°   Wind: 12mph
Humidity: 100%   Direction: 140°SE
Pressure: 29.41"   Gusts: NA
Location:  34.31°N, 90.85°W
Report Text: KCKM 231835Z AUTO 14010KT 10SM SCT006 OVC011 15/15 A2941 RMK AO1
Loading
Personal Weather Stations






























Interactive Weather Map New forecast layout! Learn more

10-Day Weather Forecast

Advertisements
Track Severe Weather on mobile